Time;durP1;ratioP1;P1;durP2;ratioP2;P2;SDS_P1;SDS_P2;PMS_P1;PMS_P2;Temp;Humidity;BMP_temperature;BMP_pressure;BME280_temperature;BME280_humidity;BME280_pressure;Samples;Min_cycle;Max_cycle;Signal;HPM_P1;HPM_P2
2022/03/24 00:00:44;;;;;;;52.43;26.57;;;;;;;3.00;45.28;101227.17;1425694;91;21517;-84
2022/03/24 00:03:10;;;;;;;60.13;28.40;;;;;;;2.99;45.42;101224.16;1396153;93;21520;-83
2022/03/24 00:05:36;;;;;;;52.48;25.80;;;;;;;2.98;45.49;101215.94;1381774;94;21550;-82
2022/03/24 00:08:03;;;;;;;53.05;26.93;;;;;;;2.96;45.37;101216.47;1376849;93;21414;-82
2022/03/24 00:10:30;;;;;;;70.12;27.30;;;;;;;2.94;44.80;101210.50;1372996;94;21392;-82
2022/03/24 00:12:56;;;;;;;60.85;28.62;;;;;;;2.92;44.80;101213.64;1363898;93;21395;-84
2022/03/24 00:15:22;;;;;;;65.60;31.85;;;;;;;2.87;45.35;101206.03;1392052;93;21392;-83
2022/03/24 00:17:49;;;;;;;73.83;33.23;;;;;;;2.83;45.01;101204.98;1401854;92;21418;-83
2022/03/24 00:20:15;;;;;;;77.75;33.08;;;;;;;2.78;45.23;101201.28;1399429;92;21387;-83
2022/03/24 00:22:41;;;;;;;78.45;33.38;;;;;;;2.73;45.82;101205.05;1379752;93;21436;-84
2022/03/24 00:25:10;;;;;;;72.05;33.78;;;;;;;2.67;46.33;101200.51;1383346;93;22352;-83
2022/03/24 00:27:37;;;;;;;67.58;30.25;;;;;;;2.62;46.06;101194.70;1392559;93;21351;-83
2022/03/24 00:30:07;;;;;;;65.15;30.62;;;;;;;2.62;46.15;101195.16;1398257;92;21484;-84
2022/03/24 00:32:32;;;;;;;62.75;31.45;;;;;;;2.58;46.11;101194.91;1399859;93;22271;-82
2022/03/24 00:34:58;;;;;;;63.63;31.30;;;;;;;2.54;45.95;101192.92;1348275;94;21451;-83
2022/03/24 00:37:25;;;;;;;55.50;27.22;;;;;;;2.49;45.21;101187.92;1374203;92;21431;-82
2022/03/24 00:39:51;;;;;;;58.05;28.57;;;;;;;2.44;44.99;101179.92;1395287;92;21916;-83
2022/03/24 00:42:21;;;;;;;63.40;29.23;;;;;;;2.42;46.58;101181.33;1393696;92;21414;-84
2022/03/24 00:44:45;;;;;;;55.15;27.58;;;;;;;2.38;46.27;101171.94;1382156;93;21437;-83
2022/03/24 00:47:16;;;;;;;58.02;29.45;;;;;;;2.39;45.69;101175.42;1363956;94;21407;-83
2022/03/24 00:49:43;;;;;;;55.67;27.13;;;;;;;2.37;46.27;101170.72;1399158;93;23165;-84
2022/03/24 00:52:09;;;;;;;65.42;29.50;;;;;;;2.35;46.42;101168.64;1384361;93;21462;-82
2022/03/24 00:54:35;;;;;;;61.45;28.85;;;;;;;2.32;45.94;101164.88;1387741;93;21406;-84
2022/03/24 00:57:02;;;;;;;52.17;27.40;;;;;;;2.30;45.88;101162.79;1394589;93;21410;-84
2022/03/24 00:59:28;;;;;;;59.53;27.25;;;;;;;2.28;45.66;101159.44;1397899;92;21357;-83
2022/03/24 01:01:55;;;;;;;54.75;24.00;;;;;;;2.28;45.47;101158.13;1388280;93;22480;-84
2022/03/24 01:04:21;;;;;;;60.60;29.00;;;;;;;2.27;45.25;101154.64;1418541;91;21542;-86
2022/03/24 01:06:47;;;;;;;55.50;26.95;;;;;;;2.30;45.63;101152.34;1427501;91;21486;-85
2022/03/24 01:09:13;;;;;;;50.88;25.75;;;;;;;2.29;45.58;101155.42;1415388;91;21391;-85
2022/03/24 01:11:40;;;;;;;51.98;25.95;;;;;;;2.28;46.20;101155.05;1426455;91;21472;-84
2022/03/24 01:14:08;;;;;;;57.13;27.37;;;;;;;2.23;46.57;101148.73;1415617;91;21258;-84
2022/03/24 01:16:35;;;;;;;47.10;26.27;;;;;;;2.17;46.07;101153.42;1422252;91;22355;-84
2022/03/24 01:19:02;;;;;;;50.92;25.65;;;;;;;2.12;46.26;101156.72;1434669;91;21439;-86
2022/03/24 01:21:28;;;;;;;43.78;22.93;;;;;;;2.08;45.98;101146.89;1430153;91;22501;-84
2022/03/24 01:23:54;;;;;;;57.43;27.60;;;;;;;2.05;45.71;101147.05;1414431;91;21443;-84
2022/03/24 01:26:20;;;;;;;52.27;26.17;;;;;;;2.02;45.77;101144.12;1419731;91;21405;-84
2022/03/24 01:28:46;;;;;;;52.35;25.45;;;;;;;1.99;46.87;101140.36;1422367;91;21507;-84
2022/03/24 01:31:14;;;;;;;41.23;24.43;;;;;;;1.99;47.34;101138.21;1421295;91;21372;-84
2022/03/24 01:33:40;;;;;;;49.98;24.40;;;;;;;1.94;48.75;101142.80;1418760;91;21802;-84
2022/03/24 01:36:08;;;;;;;51.90;24.90;;;;;;;1.90;47.76;101136.02;1400755;92;21405;-85
2022/03/24 01:38:35;;;;;;;46.90;25.32;;;;;;;1.85;47.05;101134.12;1424313;91;22031;-85
2022/03/24 01:41:02;;;;;;;62.17;31.05;;;;;;;1.75;49.83;101130.62;1430507;91;21381;-84
2022/03/24 01:43:29;;;;;;;60.40;26.40;;;;;;;1.61;50.41;101133.05;1425801;91;23551;-85
2022/03/24 01:45:55;;;;;;;65.37;30.37;;;;;;;1.43;50.36;101129.55;1427432;91;21414;-85
2022/03/24 01:48:21;;;;;;;61.95;27.40;;;;;;;1.31;49.31;101126.22;1424857;91;21594;-81
2022/03/24 01:50:47;;;;;;;63.68;29.57;;;;;;;1.22;50.83;101126.19;1411650;91;22306;-82
2022/03/24 01:53:14;;;;;;;61.00;29.27;;;;;;;1.15;50.49;101118.71;1409368;91;21390;-81
2022/03/24 01:55:42;;;;;;;58.38;29.00;;;;;;;1.05;51.68;101122.20;1437338;91;22400;-81
2022/03/24 01:58:09;;;;;;;60.63;27.32;;;;;;;0.99;51.17;101123.33;1421003;91;21398;-82
2022/03/24 02:00:35;;;;;;;50.33;25.23;;;;;;;0.97;50.16;101120.40;1396962;92;21390;-82
2022/03/24 02:03:05;;;;;;;51.73;25.62;;;;;;;0.95;49.70;101119.61;1402356;91;21501;-82
2022/03/24 02:05:37;;;;;;;51.33;26.68;;;;;;;0.95;50.31;101116.58;1386635;94;21407;-82
2022/03/24 02:08:04;;;;;;;48.48;25.62;;;;;;;0.96;51.47;101113.50;1379362;93;21489;-81
2022/03/24 02:10:32;;;;;;;57.23;28.00;;;;;;;0.93;53.69;101124.91;1391102;93;21442;-81
2022/03/24 02:12:58;;;;;;;68.37;29.00;;;;;;;0.77;55.38;101135.62;1363579;95;23489;-82
2022/03/24 02:15:26;;;;;;;86.05;31.02;;;;;;;0.58;53.74;101140.34;1378668;94;21415;-82
2022/03/24 02:17:53;;;;;;;77.30;33.85;;;;;;;0.41;53.55;101144.12;1396998;93;21556;-82
2022/03/24 02:20:24;;;;;;;82.45;36.17;;;;;;;0.35;51.50;101145.69;1400965;93;21319;-82
2022/03/24 02:22:51;;;;;;;75.17;31.42;;;;;;;0.36;51.19;101128.69;1389586;93;21452;-82
2022/03/24 02:25:18;;;;;;;71.97;32.03;;;;;;;0.42;50.70;101125.81;1400163;93;21363;-81
2022/03/24 02:27:55;;;;;;;83.45;33.05;;;;;;;0.44;52.16;101130.52;1386507;94;21532;-83
2022/03/24 02:30:12;;;;;;;76.55;32.70;;;;;;;0.49;52.43;101126.84;1390557;93;21436;-82
2022/03/24 02:32:39;;;;;;;69.40;30.35;;;;;;;0.52;50.70;101121.50;1395545;93;21369;-83
2022/03/24 02:35:06;;;;;;;63.83;29.80;;;;;;;0.57;50.82;101114.34;1374591;94;21450;-82
2022/03/24 02:37:33;;;;;;;59.20;27.70;;;;;;;0.60;50.54;101116.81;1396061;93;22309;-82
2022/03/24 02:40:00;;;;;;;63.02;28.92;;;;;;;0.60;53.48;101124.16;1388761;93;21429;-81
2022/03/24 02:42:30;;;;;;;62.85;28.23;;;;;;;0.63;52.32;101117.98;1386228;93;21398;-83
2022/03/24 02:45:00;;;;;;;65.37;26.60;;;;;;;0.64;53.27;101121.00;1379442;93;21532;-84
2022/03/24 02:47:27;;;;;;;51.33;23.62;;;;;;;0.64;51.35;101123.60;1400269;93;21421;-83
2022/03/24 02:49:56;;;;;;;71.07;29.75;;;;;;;0.66;52.44;101119.14;1396663;93;21482;-83
2022/03/24 02:52:23;;;;;;;77.47;32.65;;;;;;;0.67;55.01;101124.77;1389907;93;21561;-83
2022/03/24 02:54:49;;;;;;;66.17;31.52;;;;;;;0.65;53.19;101118.77;1395819;92;22352;-83
2022/03/24 02:57:15;;;;;;;59.07;26.53;;;;;;;0.58;53.13;101114.75;1410873;92;21571;-83
2022/03/24 02:59:42;;;;;;;61.70;30.25;;;;;;;0.54;55.41;101121.83;1390717;93;21874;-83
2022/03/24 03:02:14;;;;;;;64.67;28.92;;;;;;;0.53;54.01;101115.41;1399200;93;21334;-82
2022/03/24 03:04:43;;;;;;;69.12;29.65;;;;;;;0.52;54.21;101121.50;1437192;91;21956;-83
2022/03/24 03:07:11;;;;;;;78.87;32.20;;;;;;;0.51;54.06;101124.57;1425157;91;22491;-82
2022/03/24 03:09:39;;;;;;;74.27;30.37;;;;;;;0.48;54.39;101119.50;1418830;91;21442;-83
2022/03/24 03:12:09;;;;;;;76.02;30.97;;;;;;;0.44;55.32;101120.09;1420604;91;21410;-82
2022/03/24 03:14:35;;;;;;;83.80;33.40;;;;;;;0.41;54.17;101117.63;1412577;91;21354;-83
2022/03/24 03:17:01;;;;;;;85.30;36.75;;;;;;;0.39;54.11;101118.13;1426774;91;22337;-83
2022/03/24 03:19:29;;;;;;;92.45;33.95;;;;;;;0.36;53.54;101113.06;1424720;91;22410;-83
2022/03/24 03:21:57;;;;;;;82.67;33.98;;;;;;;0.34;54.58;101116.17;1412300;92;21457;-82
2022/03/24 03:24:23;;;;;;;71.90;31.02;;;;;;;0.33;54.96;101105.84;1412040;92;21390;-82
2022/03/24 03:26:52;;;;;;;74.72;32.98;;;;;;;0.30;54.19;101106.81;1409747;92;22448;-82
2022/03/24 03:29:20;;;;;;;77.03;32.42;;;;;;;0.30;54.28;101107.28;1411778;92;22211;-82
2022/03/24 03:31:46;;;;;;;79.32;31.52;;;;;;;0.26;55.36;101106.56;1430866;91;21473;-82
2022/03/24 03:34:12;;;;;;;78.80;33.17;;;;;;;0.24;54.77;101101.03;1433368;91;21398;-82
2022/03/24 03:36:39;;;;;;;84.58;33.28;;;;;;;0.21;53.69;101105.91;1419808;91;21345;-83
2022/03/24 03:39:10;;;;;;;77.42;35.05;;;;;;;0.19;53.78;101105.95;1431812;91;21365;-83
2022/03/24 03:41:39;;;;;;;74.60;34.85;;;;;;;0.19;53.45;101107.72;1436786;91;21410;-82
2022/03/24 03:44:06;;;;;;;84.20;34.38;;;;;;;0.14;52.48;101101.86;1420537;91;21377;-82
2022/03/24 03:46:33;;;;;;;76.57;34.45;;;;;;;0.09;53.02;101110.34;1419664;91;21463;-82
2022/03/24 03:48:59;;;;;;;88.03;36.93;;;;;;;0.10;52.82;101106.35;1426744;91;21374;-81
2022/03/24 03:51:27;;;;;;;76.77;32.08;;;;;;;0.11;52.28;101116.30;1417732;91;21329;-84
2022/03/24 03:53:52;;;;;;;76.47;34.10;;;;;;;0.13;52.63;101118.39;1403323;91;21499;-84
2022/03/24 03:56:18;;;;;;;71.40;30.83;;;;;;;0.12;52.61;101114.11;1434733;91;22522;-83
2022/03/24 03:58:44;;;;;;;92.27;37.83;;;;;;;0.13;54.20;101122.30;1409038;91;22254;-83
2022/03/24 04:01:10;;;;;;;77.10;34.43;;;;;;;0.10;54.28;101119.83;1416255;91;21484;-83
2022/03/24 04:03:39;;;;;;;86.22;34.48;;;;;;;0.05;54.59;101114.80;1414613;91;22519;-83
2022/03/24 04:06:13;;;;;;;74.80;34.00;;;;;;;0.02;55.02;101116.69;1401684;91;21477;-83
2022/03/24 04:08:38;;;;;;;70.83;32.23;;;;;;;0.02;55.12;101119.30;1412548;91;21434;-83
2022/03/24 04:11:07;;;;;;;69.07;31.52;;;;;;;-0.01;53.39;101117.20;1410422;91;22356;-83
2022/03/24 04:13:39;;;;;;;79.05;33.02;;;;;;;-0.03;53.74;101120.34;1423620;91;23315;-83
2022/03/24 04:16:11;;;;;;;71.30;29.32;;;;;;;-0.03;54.59;101115.56;1416731;91;21552;-83
2022/03/24 04:18:35;;;;;;;80.53;30.70;;;;;;;-0.07;54.56;101118.76;1430544;91;22304;-83
2022/03/24 04:21:01;;;;;;;76.10;32.30;;;;;;;-0.08;53.94;101119.67;1413684;91;21544;-84
2022/03/24 04:23:27;;;;;;;66.15;29.25;;;;;;;-0.14;55.88;101126.90;1428028;91;22371;-83
2022/03/24 04:25:53;;;;;;;64.62;31.42;;;;;;;-0.22;55.88;101129.80;1429375;91;22342;-83
2022/03/24 04:28:19;;;;;;;64.53;29.97;;;;;;;-0.28;55.95;101132.65;1414230;91;21486;-82
2022/03/24 04:30:44;;;;;;;61.37;29.27;;;;;;;-0.34;56.66;101129.83;1428305;91;21412;-82
2022/03/24 04:33:10;;;;;;;66.60;28.53;;;;;;;-0.46;56.58;101135.06;1428192;91;21448;-82
2022/03/24 04:35:37;;;;;;;67.17;28.62;;;;;;;-0.50;57.06;101137.38;1400779;91;21426;-84
2022/03/24 04:38:04;;;;;;;69.75;30.30;;;;;;;-0.50;57.27;101132.63;1409951;93;22439;-84
2022/03/24 04:40:31;;;;;;;67.03;29.35;;;;;;;-0.49;55.82;101127.39;1425343;91;21359;-85
2022/03/24 04:42:57;;;;;;;54.10;26.12;;;;;;;-0.46;55.05;101126.42;1420481;91;21356;-84
2022/03/24 04:45:26;;;;;;;65.30;25.10;;;;;;;-0.42;54.94;101125.38;1414776;91;21437;-85
2022/03/24 04:47:52;;;;;;;53.05;26.48;;;;;;;-0.37;54.50;101120.02;1406746;91;21502;-84
2022/03/24 04:50:18;;;;;;;61.37;28.98;;;;;;;-0.31;54.12;101121.06;1416560;91;21381;-83
2022/03/24 04:52:46;;;;;;;59.83;26.73;;;;;;;-0.27;53.73;101118.72;1423279;91;21441;-84
2022/03/24 04:55:13;;;;;;;65.00;29.55;;;;;;;-0.21;54.73;101118.93;1432923;91;21345;-83
2022/03/24 04:57:40;;;;;;;57.33;29.12;;;;;;;-0.15;55.16;101123.42;1416675;91;21418;-82
2022/03/24 05:00:09;;;;;;;60.70;32.85;;;;;;;-0.16;56.63;101121.73;1425806;91;22303;-82
2022/03/24 05:02:36;;;;;;;88.80;49.70;;;;;;;-0.14;55.66;101122.53;1425282;91;21403;-83
2022/03/24 05:05:02;;;;;;;87.57;39.80;;;;;;;-0.10;56.04;101121.95;1401107;91;21450;-82
2022/03/24 05:07:29;;;;;;;74.40;34.60;;;;;;;-0.10;57.62;101118.88;1407340;91;21368;-82
2022/03/24 05:09:55;;;;;;;78.33;36.28;;;;;;;-0.10;56.39;101124.09;1424104;91;21418;-83
2022/03/24 05:12:21;;;;;;;80.53;38.55;;;;;;;-0.05;56.51;101118.25;1393833;91;21336;-83
2022/03/24 05:14:48;;;;;;;59.98;32.75;;;;;;;0.01;56.63;101121.05;1408553;91;21374;-83
2022/03/24 05:17:15;;;;;;;68.78;34.20;;;;;;;0.11;55.46;101117.14;1416113;91;21439;-83
2022/03/24 05:19:41;;;;;;;60.25;32.23;;;;;;;0.21;56.19;101117.16;1425480;91;21324;-85
2022/03/24 05:22:07;;;;;;;63.38;33.40;;;;;;;0.32;55.74;101109.37;1416187;91;22300;-84
2022/03/24 05:24:33;;;;;;;59.77;30.37;;;;;;;0.45;55.48;101111.81;1419133;92;22361;-82
2022/03/24 05:26:59;;;;;;;73.07;34.58;;;;;;;0.57;55.46;101115.64;1403072;92;22423;-83
2022/03/24 05:29:25;;;;;;;66.97;30.93;;;;;;;0.70;55.93;101118.12;1382524;91;21509;-83
2022/03/24 05:31:51;;;;;;;58.90;28.83;;;;;;;0.80;55.93;101111.56;1424468;91;23281;-83
2022/03/24 05:34:17;;;;;;;66.85;31.80;;;;;;;0.95;55.78;101110.48;1410826;91;22400;-84
2022/03/24 05:36:43;;;;;;;77.85;33.95;;;;;;;1.09;55.18;101114.62;1429214;91;21494;-84
2022/03/24 05:39:09;;;;;;;67.23;32.07;;;;;;;1.21;55.37;101108.86;1405648;91;21486;-85
2022/03/24 05:41:36;;;;;;;68.75;33.63;;;;;;;1.38;54.79;101107.20;1411504;91;21396;-88
2022/03/24 05:44:02;;;;;;;63.17;34.03;;;;;;;1.53;54.79;101111.72;1422607;91;21384;-87
2022/03/24 05:46:36;;;;;;;71.00;34.83;;;;;;;1.67;54.35;101113.22;1404676;91;21508;-79
2022/03/24 05:49:06;;;;;;;70.80;33.95;;;;;;;1.78;53.99;101113.55;1434806;91;21440;-78
2022/03/24 05:51:33;;;;;;;79.32;40.50;;;;;;;1.92;53.57;101119.84;1433114;91;22408;-78
2022/03/24 05:54:16;;;;;;;84.75;38.48;;;;;;;2.04;54.13;101117.91;1412572;91;21398;-79
2022/03/24 05:56:43;;;;;;;99.03;40.83;;;;;;;2.15;54.49;101123.45;1408512;90;21567;-79
2022/03/24 05:59:13;;;;;;;86.60;44.18;;;;;;;2.30;54.57;101122.30;1425355;91;21374;-79
2022/03/24 06:01:43;;;;;;;88.95;45.67;;;;;;;2.44;53.86;101122.44;1410246;91;21396;-79
2022/03/24 06:04:15;;;;;;;95.72;48.52;;;;;;;2.57;54.09;101120.06;1414458;91;21462;-79
2022/03/24 06:06:45;;;;;;;96.53;47.98;;;;;;;2.73;53.52;101124.02;1403616;90;23225;-79
2022/03/24 06:09:11;;;;;;;103.87;51.13;;;;;;;2.87;53.41;101117.59;1428210;91;21424;-80
2022/03/24 06:11:38;;;;;;;88.65;44.80;;;;;;;3.01;53.29;101121.63;1401416;91;21467;-79
2022/03/24 06:14:08;;;;;;;98.58;43.70;;;;;;;3.18;52.99;101119.89;1428816;90;21242;-79
2022/03/24 06:16:35;;;;;;;74.65;35.78;;;;;;;3.35;52.91;101121.13;1415416;90;21477;-79
2022/03/24 06:19:02;;;;;;;62.13;29.12;;;;;;;3.53;51.66;101121.40;1408622;91;21427;-80
2022/03/24 06:21:28;;;;;;;59.97;31.73;;;;;;;3.72;47.31;101121.22;1412879;90;21351;-80
2022/03/24 06:23:54;;;;;;;86.30;31.90;;;;;;;3.95;47.25;101125.16;1402053;91;23116;-80
2022/03/24 06:26:23;;;;;;;61.87;27.23;;;;;;;4.15;46.61;101121.86;1414515;91;22570;-81
2022/03/24 06:28:50;;;;;;;63.23;30.43;;;;;;;4.29;43.35;101122.73;1420807;91;21665;-82
2022/03/24 06:31:17;;;;;;;47.47;25.03;;;;;;;4.47;45.31;101118.17;1413495;91;21641;-84
2022/03/24 06:33:43;;;;;;;46.50;25.27;;;;;;;4.66;44.99;101127.54;1428942;91;21393;-83
2022/03/24 06:36:09;;;;;;;50.87;24.97;;;;;;;4.83;44.39;101126.05;1416282;89;21428;-83
2022/03/24 06:38:38;;;;;;;47.00;27.70;;;;;;;4.97;43.05;101111.62;1407877;92;21420;-83
2022/03/24 06:41:05;;;;;;;47.77;26.50;;;;;;;5.17;44.15;101113.48;1410860;92;21701;-83
2022/03/24 06:43:34;;;;;;;46.57;23.67;;;;;;;5.38;44.56;101110.83;1409575;92;22625;-83
2022/03/24 06:46:01;;;;;;;38.30;19.80;;;;;;;5.59;43.47;101105.14;1407208;92;21868;-82
2022/03/24 06:48:27;;;;;;;40.57;19.63;;;;;;;5.78;41.31;101097.77;1411709;92;22829;-81
2022/03/24 06:50:53;;;;;;;36.30;19.27;;;;;;;5.99;40.88;101098.63;1412026;92;22549;-82
2022/03/24 06:53:19;;;;;;;37.03;20.57;;;;;;;6.21;41.37;101101.48;1414669;91;21678;-82
2022/03/24 07:03:05;;;;;;;31.43;16.93;;;;;;;6.99;38.86;101100.53;1397334;91;22121;-83
2022/03/24 07:05:31;;;;;;;31.47;16.27;;;;;;;7.66;37.12;101103.61;1404312;92;22946;-83
2022/03/24 07:07:58;;;;;;;34.67;15.27;;;;;;;7.66;37.12;101103.61;1398255;93;22015;-83
2022/03/24 07:10:24;;;;;;;27.77;16.33;;;;;;;7.96;36.26;101108.88;1398938;93;22103;-83
2022/03/24 07:12:52;;;;;;;41.23;15.23;;;;;;;8.22;34.29;101100.33;1396965;93;22211;-81
2022/03/24 07:15:19;;;;;;;20.57;12.70;;;;;;;8.46;34.63;101105.59;1378616;93;22305;-82
2022/03/24 07:17:45;;;;;;;30.43;14.87;;;;;;;8.65;31.90;101098.88;1387767;93;22235;-82
2022/03/24 07:20:11;;;;;;;21.40;13.43;;;;;;;8.88;34.10;101102.38;1379788;95;22127;-82
2022/03/24 07:22:38;;;;;;;25.13;13.27;;;;;;;9.07;31.98;101104.42;1380358;95;21443;-82
2022/03/24 07:25:07;;;;;;;35.53;17.77;;;;;;;9.27;32.38;101103.67;1379347;95;21823;-82
2022/03/24 07:27:34;;;;;;;23.50;13.30;;;;;;;9.46;32.43;101101.20;1378352;95;21465;-83
2022/03/24 07:30:02;;;;;;;26.27;16.20;;;;;;;9.65;30.40;101103.70;1380280;95;21419;-83
2022/03/24 07:32:29;;;;;;;21.73;12.90;;;;;;;9.84;31.46;101099.05;1379224;95;21420;-83
2022/03/24 07:34:55;;;;;;;23.13;12.73;;;;;;;9.99;30.67;101095.64;1381465;95;21689;-82
2022/03/24 07:37:20;;;;;;;34.17;16.03;;;;;;;10.18;31.22;101101.05;1390753;93;22746;-82
2022/03/24 07:39:47;;;;;;;25.13;15.40;;;;;;;10.31;29.98;101101.74;1406007;93;23254;-82
2022/03/24 07:42:14;;;;;;;31.67;16.20;;;;;;;10.39;29.47;101095.32;1391804;93;21414;-82
2022/03/24 07:44:41;;;;;;;30.37;16.53;;;;;;;10.50;29.76;101096.20;1406118;92;22329;-83
2022/03/24 07:47:08;;;;;;;45.50;18.90;;;;;;;10.67;29.41;101105.34;1405202;92;21523;-82
2022/03/24 07:49:34;;;;;;;30.77;17.10;;;;;;;10.88;30.30;101102.19;1398903;92;21391;-82
2022/03/24 07:52:12;;;;;;;27.57;16.17;;;;;;;11.01;29.16;101104.11;1392964;93;21317;-82
2022/03/24 07:54:43;;;;;;;35.53;18.83;;;;;;;11.16;28.98;101101.92;1402875;92;21561;-82
2022/03/24 07:57:09;;;;;;;32.87;17.50;;;;;;;11.25;28.89;101105.11;1391185;93;21682;-82
2022/03/24 07:59:35;;;;;;;35.23;18.27;;;;;;;11.36;28.66;101109.44;1387885;93;21407;-82
2022/03/24 08:02:01;;;;;;;32.40;20.33;;;;;;;11.44;28.48;101106.11;1391836;93;21514;-87
2022/03/24 08:04:28;;;;;;;45.60;19.67;;;;;;;11.60;29.35;101109.08;1387190;94;21430;-87
2022/03/24 08:06:54;;;;;;;31.43;17.77;;;;;;;11.71;28.97;101110.28;1399298;93;21484;-87
2022/03/24 08:09:20;;;;;;;36.03;18.13;;;;;;;11.88;27.96;101111.44;1351239;92;21454;-88
2022/03/24 08:11:48;;;;;;;38.83;21.27;;;;;;;11.93;27.58;101105.20;1398696;91;21396;-88
2022/03/24 08:14:14;;;;;;;35.37;19.07;;;;;;;11.94;27.88;101106.07;1420901;91;22390;-87
2022/03/24 08:16:40;;;;;;;27.57;16.13;;;;;;;12.09;27.64;101108.64;1392324;92;22751;-87
2022/03/24 08:19:06;;;;;;;32.60;19.17;;;;;;;12.20;26.86;101105.00;1402662;92;23415;-89
2022/03/24 08:21:32;;;;;;;44.20;23.20;;;;;;;12.40;27.37;101113.28;1415274;91;21415;-88
2022/03/24 08:23:58;;;;;;;56.20;32.67;;;;;;;12.55;27.70;101107.02;1391295;92;21504;-87
2022/03/24 08:26:24;;;;;;;31.37;18.40;;;;;;;12.81;28.30;101109.05;1418312;91;21407;-87
2022/03/24 08:28:50;;;;;;;39.50;22.47;;;;;;;13.02;27.16;101119.44;1407376;91;22474;-88
2022/03/24 08:31:17;;;;;;;28.20;17.77;;;;;;;12.93;26.77;101118.49;1426930;91;21314;-88
2022/03/24 08:33:43;;;;;;;34.60;19.47;;;;;;;13.09;27.33;101112.07;1421127;91;21475;-88
2022/03/24 08:36:10;;;;;;;36.97;18.17;;;;;;;13.26;27.31;101110.48;1391164;91;21315;-87
2022/03/24 08:38:37;;;;;;;28.23;16.03;;;;;;;13.36;26.42;101109.58;1403042;92;21428;-86
2022/03/24 08:41:03;;;;;;;35.07;19.27;;;;;;;13.39;26.40;101107.45;1421310;91;21445;-86
2022/03/24 08:43:30;;;;;;;30.83;16.87;;;;;;;13.57;27.22;101108.80;1418936;91;21464;-82
2022/03/24 08:45:56;;;;;;;40.60;20.27;;;;;;;13.75;26.81;101108.80;1430061;91;21410;-87
2022/03/24 08:48:22;;;;;;;33.80;18.23;;;;;;;13.89;26.88;101108.27;1425015;91;21448;-85
2022/03/24 08:50:48;;;;;;;35.37;21.23;;;;;;;13.97;26.22;101106.19;1408024;92;21437;-87
2022/03/24 08:53:15;;;;;;;37.07;21.50;;;;;;;14.03;26.43;101107.41;1398648;92;22789;-86
2022/03/24 08:55:41;;;;;;;29.97;17.47;;;;;;;14.01;26.01;101104.88;1415862;92;22199;-85
2022/03/24 08:58:08;;;;;;;29.37;18.10;;;;;;;14.15;26.31;101109.66;1420602;91;22376;-85
2022/03/24 09:00:34;;;;;;;37.67;20.03;;;;;;;14.37;26.06;101111.00;1416614;92;23416;-86
2022/03/24 09:03:01;;;;;;;31.37;17.80;;;;;;;14.57;26.44;101102.84;1415597;92;21385;-86
2022/03/24 09:05:27;;;;;;;39.33;22.07;;;;;;;14.86;26.15;101104.66;1407261;92;21364;-86
2022/03/24 09:07:53;;;;;;;35.20;20.37;;;;;;;15.16;26.91;101099.78;1404383;91;22415;-85
2022/03/24 09:10:19;;;;;;;37.67;20.40;;;;;;;15.29;25.57;101102.02;1435510;91;21506;-86
2022/03/24 09:12:48;;;;;;;26.30;15.93;;;;;;;15.55;26.10;101100.58;1435533;91;21337;-86
2022/03/24 09:15:18;;;;;;;26.70;17.33;;;;;;;15.82;25.13;101100.80;1427365;91;21425;-86
2022/03/24 09:17:45;;;;;;;37.42;19.10;;;;;;;15.81;23.59;101098.31;1432282;91;21425;-86
2022/03/24 09:20:14;;;;;;;29.53;19.33;;;;;;;15.92;24.21;101097.99;1437821;91;21562;-86
2022/03/24 09:22:43;;;;;;;33.40;19.10;;;;;;;16.05;24.02;101104.16;1429780;91;21402;-87
2022/03/24 09:25:12;;;;;;;30.97;18.03;;;;;;;16.23;24.00;101101.66;1413611;91;21373;-86
2022/03/24 09:27:39;;;;;;;31.70;16.77;;;;;;;16.37;24.24;101105.49;1429751;91;21425;-86
2022/03/24 09:30:08;;;;;;;30.40;19.33;;;;;;;16.47;23.10;101107.97;1416133;91;21388;-86
2022/03/24 09:32:35;;;;;;;35.57;16.80;;;;;;;16.60;23.60;101104.28;1406064;91;21528;-86
2022/03/24 09:35:04;;;;;;;26.40;17.93;;;;;;;16.67;23.65;101095.90;1437778;91;21447;-86
2022/03/24 09:37:32;;;;;;;30.53;19.07;;;;;;;16.88;23.68;101105.22;1426812;91;21418;-86
2022/03/24 09:40:00;;;;;;;28.20;18.60;;;;;;;17.07;23.09;101107.50;1424046;91;21488;-86
2022/03/24 09:42:28;;;;;;;34.80;19.03;;;;;;;16.87;22.64;101104.91;1425826;91;21373;-86
2022/03/24 09:45:01;;;;;;;31.97;20.23;;;;;;;17.01;22.58;101101.51;1433008;91;22271;-84
2022/03/24 09:47:29;;;;;;;32.80;18.83;;;;;;;17.09;22.43;101087.25;1408898;92;21337;-85
2022/03/24 09:49:56;;;;;;;47.63;21.50;;;;;;;17.14;22.67;101102.27;1389394;92;21470;-86
2022/03/24 09:52:22;;;;;;;27.50;19.27;;;;;;;17.32;22.94;101093.98;1417547;92;21336;-85
2022/03/24 09:54:49;;;;;;;33.90;20.20;;;;;;;17.30;22.63;101098.20;1407932;92;21409;-86
2022/03/24 09:57:15;;;;;;;30.57;20.13;;;;;;;17.19;22.46;101093.73;1406984;92;21359;-87
2022/03/24 09:59:43;;;;;;;29.40;15.77;;;;;;;17.20;22.06;101104.25;1419354;92;22289;-90
2022/03/24 10:02:12;;;;;;;31.23;17.50;;;;;;;17.28;22.10;101094.02;1417122;92;21403;-85
2022/03/24 10:05:03;;;;;;;30.97;18.53;;;;;;;17.58;21.84;101105.23;1396492;92;22269;-88
2022/03/24 10:07:30;;;;;;;40.67;18.70;;;;;;;17.69;21.53;101105.81;1396518;92;21477;-87
2022/03/24 10:09:58;;;;;;;31.97;18.73;;;;;;;17.67;21.18;101101.16;1417627;92;22409;-87
2022/03/24 10:12:36;;;;;;;58.00;20.00;;;;;;;17.55;21.30;101104.25;1413229;91;21381;-89
2022/03/24 10:15:09;;;;;;;34.73;18.40;;;;;;;17.54;21.40;101098.55;1406311;91;21484;-91
2022/03/24 10:17:37;;;;;;;29.70;18.93;;;;;;;17.70;21.48;101102.15;1433177;91;21421;-90
2022/03/24 10:20:15;;;;;;;34.67;21.47;;;;;;;17.94;21.51;101098.48;1408030;91;21389;-89
2022/03/24 10:22:56;;;;;;;30.77;20.33;;;;;;;17.99;21.34;101104.96;1407919;92;21531;-89
2022/03/24 10:25:35;;;;;;;39.93;18.60;;;;;;;18.04;21.67;101098.56;1392336;94;21496;-89
2022/03/24 10:28:14;;;;;;;39.77;19.60;;;;;;;18.04;21.12;101094.55;1367970;94;21355;-89
2022/03/24 10:31:02;;;;;;;27.95;18.32;;;;;;;18.08;21.05;101099.55;1398070;94;21415;-90
2022/03/24 10:33:47;;;;;;;31.13;18.97;;;;;;;18.40;21.36;101099.75;1391469;93;21600;-90
2022/03/24 10:36:19;;;;;;;29.80;18.83;;;;;;;18.55;21.34;101081.82;1396325;94;21591;-90
2022/03/24 10:38:52;;;;;;;34.80;19.50;;;;;;;18.31;21.15;101104.87;1424151;91;21385;-91
2022/03/24 10:41:24;;;;;;;39.93;21.13;;;;;;;18.26;21.48;101092.00;1418908;91;21437;-89
2022/03/24 10:44:02;;;;;;;28.50;17.90;;;;;;;18.49;21.43;101091.43;1415946;92;21519;-92
2022/03/24 10:46:48;;;;;;;38.30;20.00;;;;;;;18.63;20.63;101089.78;1423503;91;21632;-88
2022/03/24 10:49:26;;;;;;;58.97;16.33;;;;;;;18.55;21.06;101093.06;1432754;91;22180;-88
2022/03/24 10:51:54;;;;;;;32.37;15.97;;;;;;;18.52;19.85;101093.43;1445018;91;21388;-90
2022/03/24 10:55:16;;;;;;;26.90;14.33;;;;;;;18.39;19.62;101101.60;1417002;91;22233;-86
2022/03/24 10:57:42;;;;;;;42.60;17.80;;;;;;;18.26;19.64;101102.72;1418532;91;21384;-90
2022/03/24 11:00:11;;;;;;;21.30;14.23;;;;;;;18.33;20.37;101095.63;1424646;91;21393;-89
2022/03/24 11:02:37;;;;;;;31.43;15.77;;;;;;;18.36;19.81;101091.76;1428652;91;22404;-90
2022/03/24 11:05:12;;;;;;;30.47;16.67;;;;;;;18.42;20.17;101087.83;1386145;91;21327;-89
2022/03/24 11:07:36;;;;;;;26.53;15.93;;;;;;;18.42;20.44;101085.67;1405665;92;21553;-88
2022/03/24 11:10:11;;;;;;;47.00;16.03;;;;;;;18.43;19.81;101073.92;1379736;94;22625;-86
2022/03/24 11:12:39;;;;;;;30.43;17.10;;;;;;;18.20;19.70;101089.54;1406793;92;21407;-90
2022/03/24 11:15:08;;;;;;;28.40;16.17;;;;;;;18.38;19.92;101083.01;1417571;91;21411;-90
2022/03/24 11:17:39;;;;;;;26.83;16.10;;;;;;;17.97;20.33;101077.52;1428192;91;21418;-89
2022/03/24 11:20:41;;;;;;;44.63;18.30;;;;;;;18.15;20.46;101084.40;1424860;91;21492;-90
2022/03/24 11:23:50;;;;;;;32.77;13.97;;;;;;;18.15;20.41;101083.06;1383666;93;22327;-87
2022/03/24 11:26:14;;;;;;;28.10;14.53;;;;;;;18.16;20.22;101082.06;1411808;91;21425;-87